Time;durP1;ratioP1;P1;durP2;ratioP2;P2;SDS_P1;SDS_P2;PMS_P1;PMS_P2;Temp;Humidity;BMP_temperature;BMP_pressure;BME280_temperature;BME280_humidity;BME280_pressure;Samples;Min_cycle;Max_cycle;Signal;HPM_P1;HPM_P2
2022/08/03 00:00:40;;;;;;;6.53;3.17;;;19.50;99.90;;;;;;5065767;28;20020;-82
2022/08/03 00:03:05;;;;;;;5.22;2.80;;;19.50;99.90;;;;;;5065221;28;20588;-80
2022/08/03 00:05:32;;;;;;;6.45;3.28;;;19.50;99.90;;;;;;5062287;28;20021;-80
2022/08/03 00:07:59;;;;;;;6.45;3.30;;;19.40;99.90;;;;;;5060872;28;20040;-82
2022/08/03 00:10:25;;;;;;;6.07;3.28;;;19.40;99.90;;;;;;5060382;28;20111;-80
2022/08/03 00:12:52;;;;;;;6.30;3.40;;;19.40;99.90;;;;;;5060262;28;20025;-82
2022/08/03 00:15:18;;;;;;;6.18;3.22;;;19.40;99.90;;;;;;5060335;28;20147;-80
2022/08/03 00:17:44;;;;;;;6.88;3.28;;;19.40;99.90;;;;;;5060056;28;20385;-83
2022/08/03 00:20:11;;;;;;;7.85;3.65;;;19.00;99.90;;;;;;5059978;28;20043;-81
2022/08/03 00:22:37;;;;;;;6.88;3.35;;;21.40;99.90;;;;;;5059735;28;20037;-81
2022/08/03 00:25:03;;;;;;;7.90;3.50;;;19.20;99.90;;;;;;5059046;28;20033;-82
2022/08/03 00:27:29;;;;;;;6.18;3.13;;;19.00;99.90;;;;;;5059663;28;20613;-81
2022/08/03 00:29:58;;;;;;;6.30;3.20;;;18.90;99.90;;;;;;5059398;28;20149;-81
2022/08/03 00:32:24;;;;;;;6.78;3.00;;;18.60;99.90;;;;;;5059360;28;20122;-80
2022/08/03 00:34:49;;;;;;;7.78;3.55;;;18.80;99.90;;;;;;5058273;28;20719;-82
2022/08/03 00:37:15;;;;;;;7.50;3.35;;;18.70;99.90;;;;;;5059280;28;20479;-82
2022/08/03 00:39:44;;;;;;;7.80;3.10;;;18.70;99.90;;;;;;5059440;28;20025;-81
2022/08/03 00:42:10;;;;;;;7.28;2.97;;;15.50;99.90;;;;;;5057829;28;20021;-79
2022/08/03 00:44:40;;;;;;;6.93;3.17;;;18.70;99.90;;;;;;5059358;28;20569;-80
2022/08/03 00:47:07;;;;;;;11.80;5.68;;;18.70;99.90;;;;;;5059006;28;20614;-80
2022/08/03 00:49:33;;;;;;;8.30;3.53;;;;;;;;;;5060127;28;20332;-81
2022/08/03 00:52:00;;;;;;;6.30;3.30;;;18.60;99.90;;;;;;5059331;28;20031;-82
2022/08/03 00:54:27;;;;;;;14.85;3.72;;;18.60;99.90;;;;;;5058857;28;20067;-81
2022/08/03 00:56:53;;;;;;;7.43;3.40;;;18.50;99.90;;;;;;5057424;28;20674;-82
2022/08/03 00:59:19;;;;;;;7.38;3.13;;;18.50;99.90;;;;;;5057337;28;20570;-80
2022/08/03 01:01:45;;;;;;;7.55;3.40;;;18.50;99.90;;;;;;5058648;28;20024;-82
2022/08/03 01:04:11;;;;;;;6.75;3.70;;;18.50;99.90;;;;;;5058519;28;20305;-82
2022/08/03 01:06:48;;;;;;;7.00;3.22;;;18.50;99.90;;;;;;5058684;28;20119;-81
2022/08/03 01:09:24;;;;;;;8.27;3.42;;;18.50;99.90;;;;;;5058556;28;20110;-78
2022/08/03 01:12:07;;;;;;;8.60;3.75;;;18.50;99.90;;;;;;5058530;28;20021;-80
2022/08/03 01:14:37;;;;;;;7.15;4.00;;;18.50;99.90;;;;;;5057147;28;20580;-81
2022/08/03 01:17:23;;;;;;;6.22;3.47;;;18.40;99.90;;;;;;5058579;28;20056;-81
2022/08/03 01:20:11;;;;;;;6.93;3.50;;;18.40;99.90;;;;;;5057406;28;20013;-82
2022/08/03 01:23:08;;;;;;;8.43;4.43;;;18.40;99.90;;;;;;5058984;28;20105;-83
2022/08/03 01:26:07;;;;;;;8.10;3.90;;;18.40;99.90;;;;;;5056830;28;20222;-81
2022/08/03 01:28:58;;;;;;;8.55;4.20;;;18.40;99.90;;;;;;5058423;28;20013;-83
2022/08/03 01:31:41;;;;;;;7.95;3.92;;;18.40;99.90;;;;;;5058322;28;20021;-81
2022/08/03 01:34:13;;;;;;;8.30;4.18;;;18.30;99.90;;;;;;5058184;28;20020;-81
2022/08/03 01:36:47;;;;;;;9.15;4.20;;;18.20;99.90;;;;;;5056468;28;20332;-82
2022/08/03 01:39:15;;;;;;;9.68;3.70;;;18.20;99.90;;;;;;5058013;28;20024;-83
2022/08/03 01:41:49;;;;;;;7.90;4.20;;;18.20;99.90;;;;;;5057902;28;20304;-81
2022/08/03 01:44:16;;;;;;;6.55;3.47;;;18.00;99.90;;;;;;5058150;28;20510;-82
2022/08/03 01:46:42;;;;;;;7.65;3.55;;;18.00;99.90;;;;;;5056531;28;20037;-82
2022/08/03 01:49:11;;;;;;;9.27;4.15;;;18.00;99.90;;;;;;5058216;28;20028;-81
2022/08/03 01:51:41;;;;;;;7.85;4.13;;;18.00;99.90;;;;;;5058201;28;20416;-81
2022/08/03 01:54:09;;;;;;;6.70;3.45;;;17.90;99.90;;;;;;5061834;28;20021;-83
2022/08/03 01:56:38;;;;;;;6.78;3.53;;;17.90;99.90;;;;;;5064881;28;20025;-82
2022/08/03 01:59:06;;;;;;;7.05;3.58;;;17.80;99.90;;;;;;5065102;28;20044;-83
2022/08/03 02:01:35;;;;;;;8.95;3.97;;;17.80;99.90;;;;;;5070907;28;20070;-83
2022/08/03 02:04:02;;;;;;;6.85;3.67;;;17.90;99.90;;;;;;5059796;28;20363;-80
2022/08/03 02:06:31;;;;;;;7.20;3.53;;;17.90;99.90;;;;;;5059131;28;20039;-82
2022/08/03 02:08:59;;;;;;;8.20;3.80;;;17.90;99.90;;;;;;5058590;28;20480;-83
2022/08/03 02:11:26;;;;;;;10.30;3.75;;;17.80;99.90;;;;;;5056913;28;20483;-81
2022/08/03 02:13:53;;;;;;;7.05;3.78;;;17.80;99.90;;;;;;5058080;28;20021;-81
2022/08/03 02:16:22;;;;;;;6.40;3.60;;;17.70;99.90;;;;;;5057664;28;20025;-81
2022/08/03 02:18:48;;;;;;;9.18;4.50;;;17.70;99.90;;;;;;5057689;28;20316;-81
2022/08/03 02:21:14;;;;;;;8.27;3.70;;;17.60;99.90;;;;;;5057741;28;20296;-83
2022/08/03 02:23:40;;;;;;;6.88;3.55;;;17.50;99.90;;;;;;5056409;28;20111;-82
2022/08/03 02:26:11;;;;;;;6.65;3.80;;;17.40;99.90;;;;;;5057421;28;20531;-81
2022/08/03 02:28:40;;;;;;;10.15;4.00;;;17.40;99.90;;;;;;5057688;28;20549;-81
2022/08/03 02:31:16;;;;;;;8.43;3.53;;;17.30;99.90;;;;;;5057411;28;20545;-83
2022/08/03 02:33:50;;;;;;;7.03;3.97;;;17.30;99.90;;;;;;5056155;28;20516;-82
2022/08/03 02:36:20;;;;;;;6.38;3.10;;;17.20;99.90;;;;;;5057387;28;20238;-84
2022/08/03 02:38:51;;;;;;;7.40;3.92;;;17.20;99.90;;;;;;5057321;28;20430;-80
2022/08/03 02:41:23;;;;;;;7.63;3.83;;;17.10;99.90;;;;;;5057469;28;20101;-82
2022/08/03 02:43:53;;;;;;;8.05;4.20;;;17.10;99.90;;;;;;5055917;28;20106;-83
2022/08/03 02:46:27;;;;;;;7.05;3.70;;;17.10;99.90;;;;;;5056077;28;20048;-81
2022/08/03 02:48:54;;;;;;;7.65;4.10;;;17.10;99.90;;;;;;5061348;28;20182;-82
2022/08/03 02:51:21;;;;;;;6.80;3.53;;;17.10;99.90;;;;;;5059915;28;20028;-81
2022/08/03 02:53:48;;;;;;;8.02;3.67;;;17.10;99.90;;;;;;5061162;28;20521;-81
2022/08/03 02:56:17;;;;;;;7.65;4.05;;;17.10;99.90;;;;;;5061016;28;20059;-81
2022/08/03 02:58:44;;;;;;;9.25;3.97;;;17.10;99.90;;;;;;5060009;28;20384;-82
2022/08/03 03:01:11;;;;;;;7.88;3.83;;;17.00;99.90;;;;;;5061193;28;20052;-80
2022/08/03 03:03:39;;;;;;;7.03;3.42;;;17.00;99.90;;;;;;5061386;28;20017;-81
2022/08/03 03:06:06;;;;;;;6.53;3.60;;;17.00;99.90;;;;;;5061144;28;20195;-83
2022/08/03 03:08:33;;;;;;;8.85;4.65;;;17.00;99.90;;;;;;5060897;28;20036;-82
2022/08/03 03:11:00;;;;;;;8.65;4.13;;;16.90;99.90;;;;;;5061044;28;20040;-80
2022/08/03 03:13:30;;;;;;;6.32;3.83;;;17.00;99.90;;;;;;5059512;28;20297;-81
2022/08/03 03:16:00;;;;;;;8.45;4.20;;;17.00;99.90;;;;;;5059418;28;20021;-84
2022/08/03 03:18:27;;;;;;;8.48;4.10;;;16.90;99.90;;;;;;5059417;28;20082;-81
2022/08/03 03:20:54;;;;;;;9.68;4.53;;;16.90;99.90;;;;;;5060641;28;20051;-80
2022/08/03 03:23:22;;;;;;;11.23;4.78;;;16.80;99.90;;;;;;5060489;28;20028;-81
2022/08/03 03:25:48;;;;;;;9.85;4.63;;;16.40;99.90;;;;;;5058675;28;20052;-80
2022/08/03 03:28:14;;;;;;;8.25;4.22;;;16.80;99.90;;;;;;5059205;28;20250;-82
2022/08/03 03:30:41;;;;;;;8.98;4.55;;;16.80;99.90;;;;;;5058923;28;20037;-82
2022/08/03 03:33:07;;;;;;;7.45;4.28;;;16.70;99.90;;;;;;5060331;28;20031;-81
2022/08/03 03:35:33;;;;;;;8.38;4.18;;;16.70;99.90;;;;;;5060541;28;20013;-82
2022/08/03 03:37:59;;;;;;;9.98;4.10;;;16.70;99.90;;;;;;5059076;28;20534;-81
2022/08/03 03:40:26;;;;;;;6.80;3.75;;;16.60;99.90;;;;;;5058971;28;20319;-82
2022/08/03 03:42:52;;;;;;;7.43;3.88;;;16.60;99.90;;;;;;5060696;28;20028;-81
2022/08/03 03:45:19;;;;;;;13.73;4.43;;;16.70;99.90;;;;;;5060141;28;20025;-80
2022/08/03 03:47:45;;;;;;;8.48;4.20;;;16.70;99.90;;;;;;5060186;28;20096;-81
2022/08/03 03:50:11;;;;;;;7.15;4.22;;;16.70;99.90;;;;;;5060328;28;20112;-80
2022/08/03 03:52:37;;;;;;;7.95;4.68;;;16.60;99.90;;;;;;5060125;28;20511;-79
2022/08/03 03:55:03;;;;;;;8.23;4.05;;;16.60;99.90;;;;;;5059847;28;20035;-79
2022/08/03 03:57:29;;;;;;;7.35;4.28;;;16.60;99.90;;;;;;5059570;28;20232;-81
2022/08/03 03:59:55;;;;;;;8.65;4.20;;;;;;;;;;5059919;28;20514;-82
2022/08/03 04:02:21;;;;;;;7.85;3.67;;;16.70;99.90;;;;;;5059672;28;20490;-80
2022/08/03 04:11:10;;;;;;;7.82;3.92;;;16.70;99.90;;;;;;5059571;28;20078;-81
2022/08/03 04:13:19;;;;;;;8.70;5.05;;;16.70;99.90;;;;;;5053955;28;20041;-81
2022/08/03 04:15:46;;;;;;;8.45;4.03;;;16.70;99.90;;;;;;5059734;28;20525;-80
2022/08/03 04:18:14;;;;;;;7.80;4.20;;;16.70;99.90;;;;;;5059672;28;20032;-81
2022/08/03 04:20:45;;;;;;;10.00;5.32;;;16.70;99.90;;;;;;5059609;28;20033;-81
2022/08/03 04:23:12;;;;;;;9.38;4.80;;;16.80;99.90;;;;;;5058368;28;20028;-84
2022/08/03 04:25:40;;;;;;;11.38;4.43;;;17.60;99.90;;;;;;5059418;28;20099;-83
2022/08/03 04:28:07;;;;;;;7.88;4.35;;;16.80;99.90;;;;;;5060105;28;20651;-79
2022/08/03 04:30:36;;;;;;;7.13;4.03;;;16.90;99.90;;;;;;5059731;28;20025;-80
2022/08/03 04:33:02;;;;;;;9.18;4.70;;;16.90;99.90;;;;;;5058426;28;20033;-82
2022/08/03 04:35:32;;;;;;;9.20;4.60;;;16.80;99.90;;;;;;5059635;28;20418;-83
2022/08/03 04:38:02;;;;;;;7.93;4.00;;;16.90;99.90;;;;;;5068792;28;20020;-83
2022/08/03 04:40:33;;;;;;;9.45;4.32;;;16.90;99.90;;;;;;5077592;28;20088;-81
2022/08/03 04:43:00;;;;;;;7.93;4.32;;;16.90;99.90;;;;;;5078099;28;20021;-81
2022/08/03 04:45:28;;;;;;;8.85;4.38;;;16.90;99.90;;;;;;5078137;28;20039;-82
2022/08/03 04:47:55;;;;;;;8.85;4.47;;;16.90;99.90;;;;;;5079858;28;20305;-80
2022/08/03 04:50:21;;;;;;;7.78;3.90;;;16.90;99.90;;;;;;5070909;28;20352;-82
2022/08/03 04:52:48;;;;;;;7.53;4.30;;;17.00;99.90;;;;;;5065435;28;20013;-82
2022/08/03 04:55:26;;;;;;;9.80;4.32;;;17.00;99.90;;;;;;5064050;28;20429;-84
2022/08/03 04:57:52;;;;;;;8.45;4.15;;;17.10;99.90;;;;;;5062399;28;20059;-83
2022/08/03 05:00:18;;;;;;;7.97;4.55;;;17.10;99.90;;;;;;5063987;28;20484;-83
2022/08/03 05:02:44;;;;;;;8.07;4.15;;;17.20;99.90;;;;;;5062407;28;20035;-82
2022/08/03 05:05:10;;;;;;;6.55;3.47;;;17.10;99.90;;;;;;5060400;28;20020;-82
2022/08/03 05:07:37;;;;;;;8.38;4.03;;;17.30;99.90;;;;;;5059409;28;20530;-85
2022/08/03 05:10:07;;;;;;;7.75;4.40;;;17.40;99.90;;;;;;5060223;28;20024;-83
2022/08/03 05:12:33;;;;;;;7.97;4.25;;;17.40;99.90;;;;;;5060487;28;20080;-82
2022/08/03 05:15:00;;;;;;;9.45;4.07;;;17.40;99.90;;;;;;5061622;28;20228;-83
2022/08/03 05:17:27;;;;;;;7.60;4.13;;;17.50;99.90;;;;;;5061221;28;20136;-82
2022/08/03 05:19:53;;;;;;;8.65;3.92;;;17.50;99.90;;;;;;5061333;28;20048;-83
2022/08/03 05:22:19;;;;;;;7.22;3.80;;;17.60;99.90;;;;;;5059236;28;20063;-83
2022/08/03 05:24:45;;;;;;;7.45;4.00;;;17.60;99.90;;;;;;5059958;28;20519;-84
2022/08/03 05:27:16;;;;;;;6.25;3.75;;;17.80;99.90;;;;;;5058253;28;20098;-84
2022/08/03 05:29:42;;;;;;;6.28;3.88;;;17.90;99.90;;;;;;5059235;28;20013;-83
2022/08/03 05:32:08;;;;;;;8.85;3.97;;;18.00;99.90;;;;;;5058508;28;20028;-82
2022/08/03 05:34:34;;;;;;;7.70;4.18;;;18.10;99.90;;;;;;5058304;28;20047;-83
2022/08/03 05:37:00;;;;;;;7.30;4.05;;;18.20;99.90;;;;;;5058281;28;20079;-83
2022/08/03 05:39:25;;;;;;;7.18;3.30;;;18.30;99.90;;;;;;5058049;28;20009;-83
2022/08/03 05:41:51;;;;;;;7.43;3.90;;;18.40;99.90;;;;;;5058034;28;20036;-80
2022/08/03 05:44:17;;;;;;;7.63;3.97;;;18.50;99.90;;;;;;5058142;28;20399;-81
2022/08/03 05:46:43;;;;;;;9.32;4.22;;;16.50;99.90;;;;;;5058065;28;20032;-84
2022/08/03 05:49:09;;;;;;;8.43;4.30;;;18.70;99.90;;;;;;5057778;28;20510;-82
2022/08/03 05:51:35;;;;;;;14.38;4.32;;;21.50;99.90;;;;;;5057586;28;20471;-82
2022/08/03 05:54:02;;;;;;;8.32;4.25;;;18.90;99.90;;;;;;5057989;28;20103;-82
2022/08/03 05:56:28;;;;;;;12.70;4.63;;;19.00;99.90;;;;;;5057613;28;20036;-83
2022/08/03 05:58:56;;;;;;;6.78;3.90;;;19.10;99.90;;;;;;5056017;28;20040;-81
2022/08/03 06:01:22;;;;;;;9.35;3.65;;;19.20;99.90;;;;;;5056080;28;20149;-82
2022/08/03 06:03:49;;;;;;;9.65;4.53;;;19.30;99.90;;;;;;5055961;28;20044;-83
2022/08/03 06:06:15;;;;;;;8.00;4.40;;;19.40;99.90;;;;;;5057762;28;20033;-83
2022/08/03 06:08:42;;;;;;;8.35;4.53;;;19.50;99.90;;;;;;5057729;28;20021;-83
2022/08/03 06:11:08;;;;;;;9.65;4.50;;;19.60;99.90;;;;;;5056074;28;20021;-81
2022/08/03 06:13:34;;;;;;;8.23;4.25;;;18.30;99.90;;;;;;5057536;28;20039;-83
2022/08/03 06:16:01;;;;;;;8.88;5.00;;;19.70;99.90;;;;;;5055900;28;20109;-82
2022/08/03 06:18:26;;;;;;;8.95;5.18;;;19.90;99.90;;;;;;5055483;28;20115;-83
2022/08/03 06:20:52;;;;;;;8.15;4.60;;;20.00;99.90;;;;;;5055553;28;20047;-83
2022/08/03 06:23:19;;;;;;;9.43;4.95;;;20.20;99.90;;;;;;5057114;28;20032;-81
2022/08/03 06:25:45;;;;;;;7.28;4.25;;;20.30;99.90;;;;;;5055230;28;20697;-82
2022/08/03 06:28:12;;;;;;;8.18;4.72;;;20.50;99.90;;;;;;5055322;28;20543;-82
2022/08/03 06:30:38;;;;;;;9.10;5.05;;;20.60;99.90;;;;;;5056714;28;20521;-82
2022/08/03 06:33:04;;;;;;;13.40;7.82;;;20.80;99.90;;;;;;5056600;28;20382;-80
2022/08/03 06:35:30;;;;;;;12.45;7.72;;;20.90;99.90;;;;;;5057041;28;20033;-81
2022/08/03 06:37:56;;;;;;;12.77;7.90;;;21.10;99.90;;;;;;5057074;28;20017;-81
2022/08/03 06:40:28;;;;;;;12.15;7.43;;;21.20;99.90;;;;;;5057065;28;20108;-81
2022/08/03 06:42:55;;;;;;;7.90;4.57;;;21.10;99.90;;;;;;5056845;28;20017;-81
2022/08/03 06:45:21;;;;;;;10.98;5.63;;;21.40;99.90;;;;;;5056622;28;20029;-81
2022/08/03 06:47:47;;;;;;;13.82;5.78;;;21.30;99.90;;;;;;5056966;28;20024;-81
2022/08/03 06:50:13;;;;;;;9.18;5.20;;;21.40;99.90;;;;;;5057017;28;20028;-82
2022/08/03 06:52:39;;;;;;;9.95;5.45;;;21.80;99.90;;;;;;5056951;28;20040;-80
2022/08/03 06:55:05;;;;;;;9.90;5.68;;;21.70;99.90;;;;;;5055045;28;20032;-81
2022/08/03 06:57:31;;;;;;;9.95;4.70;;;21.70;99.90;;;;;;5055373;28;20032;-79
2022/08/03 07:00:00;;;;;;;8.60;4.60;;;21.90;99.90;;;;;;5056511;28;20048;-81
2022/08/03 07:02:27;;;;;;;11.20;5.93;;;22.10;99.80;;;;;;5056699;28;20332;-81
2022/08/03 07:04:53;;;;;;;8.73;5.63;;;22.10;99.50;;;;;;5055079;28;20151;-82
2022/08/03 07:07:19;;;;;;;12.77;6.05;;;21.80;99.60;;;;;;5056739;28;20107;-82
2022/08/03 07:09:47;;;;;;;10.45;5.30;;;;;;;;;;5056306;28;20013;-81
2022/08/03 07:12:12;;;;;;;10.07;5.28;;;22.00;99.40;;;;;;5054914;28;20035;-81
2022/08/03 07:14:38;;;;;;;9.60;5.95;;;22.20;99.90;;;;;;5056463;28;20380;-82
2022/08/03 07:17:04;;;;;;;10.20;5.60;;;22.30;99.50;;;;;;5056446;28;20233;-82
2022/08/03 07:19:30;;;;;;;8.60;4.97;;;22.40;99.10;;;;;;5056712;28;20013;-84
2022/08/03 07:21:55;;;;;;;10.60;5.82;;;22.60;98.90;;;;;;5056404;28;20443;-81
2022/08/03 07:24:21;;;;;;;11.40;6.25;;;22.60;98.60;;;;;;5056284;28;20029;-82
2022/08/03 07:26:47;;;;;;;11.20;6.55;;;19.90;97.70;;;;;;5056110;28;20228;-81
2022/08/03 07:29:13;;;;;;;9.43;4.47;;;23.00;98.00;;;;;;5054597;28;20100;-81
2022/08/03 07:31:38;;;;;;;9.85;5.80;;;23.10;97.80;;;;;;5056237;28;20065;-82
2022/08/03 07:34:04;;;;;;;9.88;5.30;;;23.10;97.70;;;;;;5058546;28;20049;-80
2022/08/03 07:36:33;;;;;;;9.98;5.55;;;23.10;97.60;;;;;;5060033;28;20256;-84
2022/08/03 07:38:59;;;;;;;10.98;5.57;;;23.20;97.50;;;;;;5060295;28;20134;-81
2022/08/03 07:41:25;;;;;;;8.52;5.32;;;23.50;97.40;;;;;;5059707;28;20074;-82
2022/08/03 07:43:51;;;;;;;9.60;4.80;;;23.70;97.40;;;;;;5058512;28;20025;-81
2022/08/03 07:46:17;;;;;;;8.90;4.72;;;23.60;96.90;;;;;;5059586;28;20410;-82
2022/08/03 07:48:43;;;;;;;8.40;5.30;;;23.90;96.20;;;;;;5058220;28;20321;-85
2022/08/03 07:51:08;;;;;;;10.45;5.80;;;23.90;96.00;;;;;;5059722;28;20507;-81
2022/08/03 07:53:34;;;;;;;9.40;5.05;;;24.00;96.00;;;;;;5059695;28;20032;-80
2022/08/03 07:56:00;;;;;;;10.00;5.47;;;24.20;95.90;;;;;;5059395;28;20025;-81
2022/08/03 07:58:26;;;;;;;9.65;4.75;;;24.30;95.80;;;;;;5058061;28;20032;-82
2022/08/03 08:00:52;;;;;;;10.57;5.43;;;24.40;95.60;;;;;;5059531;28;20526;-81
2022/08/03 08:03:18;;;;;;;11.48;5.20;;;24.30;95.30;;;;;;5059412;28;20017;-82
2022/08/03 08:05:44;;;;;;;11.73;5.45;;;24.50;95.40;;;;;;5059582;28;20021;-82
2022/08/03 08:08:10;;;;;;;8.98;4.68;;;24.50;95.70;;;;;;5059362;28;20025;-84
2022/08/03 08:10:36;;;;;;;9.48;5.68;;;24.70;95.20;;;;;;5057456;28;20507;-81
2022/08/03 08:13:03;;;;;;;7.47;5.32;;;24.80;94.70;;;;;;5059348;28;20060;-82
2022/08/03 08:15:29;;;;;;;11.18;4.95;;;24.80;94.30;;;;;;5059162;28;20048;-82
2022/08/03 08:17:58;;;;;;;8.43;5.30;;;25.00;94.10;;;;;;5059216;28;20031;-81
2022/08/03 08:20:28;;;;;;;7.97;4.45;;;24.80;93.80;;;;;;5059273;28;20066;-81
2022/08/03 08:22:59;;;;;;;8.98;4.68;;;25.30;93.90;;;;;;5059034;28;20052;-81
2022/08/03 08:25:25;;;;;;;9.60;5.10;;;25.30;93.60;;;;;;5058616;28;20283;-80
2022/08/03 08:27:51;;;;;;;8.60;4.80;;;25.50;93.00;;;;;;5059209;28;20070;-81
2022/08/03 08:30:22;;;;;;;9.07;4.65;;;24.80;92.80;;;;;;5058872;28;20048;-80
2022/08/03 08:32:51;;;;;;;10.30;5.00;;;25.70;92.70;;;;;;5057216;28;20037;-82
2022/08/03 08:35:18;;;;;;;10.05;5.57;;;25.80;92.70;;;;;;5058911;28;20523;-81
2022/08/03 08:37:44;;;;;;;10.77;5.65;;;25.90;92.80;;;;;;5059598;28;20016;-81
2022/08/03 08:40:12;;;;;;;10.68;5.20;;;25.90;92.30;;;;;;5060484;28;20017;-81
2022/08/03 08:42:45;;;;;;;8.52;5.07;;;25.90;92.00;;;;;;5058301;28;20025;-82
2022/08/03 08:45:11;;;;;;;9.20;5.35;;;25.80;92.30;;;;;;5058869;28;20021;-81
2022/08/03 08:47:39;;;;;;;9.93;4.97;;;25.90;92.50;;;;;;5058275;28;20570;-82
2022/08/03 08:50:07;;;;;;;9.07;4.85;;;26.10;92.10;;;;;;5057519;28;20461;-83
2022/08/03 08:52:34;;;;;;;10.75;5.53;;;26.20;92.00;;;;;;5058716;28;20027;-81
2022/08/03 08:55:05;;;;;;;9.63;5.43;;;26.00;91.80;;;;;;5058245;28;20212;-81
2022/08/03 08:57:43;;;;;;;12.10;6.50;;;25.90;92.30;;;;;;5057922;28;20025;-82
2022/08/03 09:00:13;;;;;;;9.73;5.00;;;25.80;92.20;;;;;;5058556;28;20024;-81
2022/08/03 09:02:43;;;;;;;9.98;5.15;;;26.10;92.00;;;;;;5058414;28;20171;-80
2022/08/03 09:05:13;;;;;;;9.55;5.03;;;26.40;91.30;;;;;;5058495;28;20024;-82
2022/08/03 09:07:40;;;;;;;9.98;5.00;;;26.80;91.00;;;;;;5057917;28;20032;-82
2022/08/03 09:10:07;;;;;;;9.60;4.47;;;27.10;90.10;;;;;;5056643;28;20052;-81
2022/08/03 09:12:44;;;;;;;9.60;5.30;;;27.30;89.60;;;;;;5058115;28;20319;-82
2022/08/03 09:15:27;;;;;;;9.55;5.30;;;27.40;90.10;;;;;;5058311;28;20507;-80
2022/08/03 09:17:55;;;;;;;8.90;5.30;;;27.80;88.00;;;;;;5057546;28;20073;-82
2022/08/03 09:20:23;;;;;;;10.60;5.40;;;27.80;87.80;;;;;;5056670;28;20127;-81
2022/08/03 09:23:01;;;;;;;11.43;5.47;;;27.70;87.20;;;;;;5057714;28;20025;-83
2022/08/03 09:25:45;;;;;;;7.93;4.38;;;27.80;87.10;;;;;;5056070;28;20624;-82
2022/08/03 09:28:16;;;;;;;8.85;4.63;;;28.20;86.30;;;;;;5056795;28;20251;-81
2022/08/03 09:30:57;;;;;;;7.43;4.47;;;28.20;85.40;;;;;;5057578;28;20702;-81
2022/08/03 09:33:23;;;;;;;9.05;4.93;;;28.20;84.40;;;;;;5057926;28;20078;-81
2022/08/03 09:35:49;;;;;;;9.60;4.85;;;28.00;84.00;;;;;;5057654;28;20461;-82
2022/08/03 09:38:24;;;;;;;8.93;4.90;;;27.90;83.30;;;;;;5056032;28;20031;-81
2022/08/03 09:40:51;;;;;;;9.50;4.57;;;28.10;84.00;;;;;;5057836;28;20070;-82
2022/08/03 09:43:17;;;;;;;7.88;4.55;;;28.40;82.10;;;;;;5057799;28;20040;-81
2022/08/03 09:45:43;;;;;;;8.55;4.60;;;28.50;81.00;;;;;;5057683;28;20352;-82
2022/08/03 09:49:03;;;;;;;9.20;4.82;;;28.70;81.60;;;;;;5056169;28;20045;-80
2022/08/03 09:51:28;;;;;;;9.13;4.90;;;29.00;83.30;;;;;;4994588;28;20042;-81
2022/08/03 09:53:58;;;;;;;8.10;4.35;;;29.10;82.20;;;;;;4994731;28;20034;-81
2022/08/03 09:56:43;;;;;;;7.57;4.15;;;26.50;78.30;;;;;;4977748;28;20306;-81
2022/08/03 09:59:10;;;;;;;8.23;4.47;;;28.40;79.00;;;;;;4994287;28;20388;-81
2022/08/03 10:01:40;;;;;;;7.43;3.92;;;28.40;79.60;;;;;;4977959;28;20314;-81
2022/08/03 10:04:15;;;;;;;9.15;4.45;;;28.40;78.80;;;;;;4994645;28;20018;-82
2022/08/03 10:06:59;;;;;;;7.70;4.18;;;27.80;76.90;;;;;;4994398;28;20052;-81
2022/08/03 10:09:26;;;;;;;7.68;3.97;;;28.30;76.50;;;;;;4976899;28;20034;-82
2022/08/03 10:11:52;;;;;;;7.32;4.13;;;28.20;78.50;;;;;;4978044;28;20026;-80
2022/08/03 10:14:18;;;;;;;9.82;4.20;;;28.30;78.40;;;;;;4994178;28;20026;-81
2022/08/03 10:16:45;;;;;;;7.75;4.13;;;28.50;78.40;;;;;;4994344;28;20588;-82
2022/08/03 10:19:13;;;;;;;6.32;3.78;;;28.80;76.90;;;;;;4994321;28;20125;-79
2022/08/03 10:21:46;;;;;;;6.57;3.80;;;29.00;74.20;;;;;;4994273;28;20258;-81
2022/08/03 10:24:13;;;;;;;;;;;28.90;75.10;;;;;;4994751;28;20058;-80
2022/08/03 10:26:43;;;;;;;6.80;3.70;;;29.00;74.00;;;;;;4994179;28;19922;-80
2022/08/03 10:29:13;;;;;;;7.32;3.92;;;29.00;73.50;;;;;;5046788;28;20178;-82
2022/08/03 10:31:42;;;;;;;8.02;3.50;;;29.30;71.50;;;;;;5057317;28;20024;-81
2022/08/03 10:34:13;;;;;;;6.45;3.60;;;29.20;72.00;;;;;;5056981;28;20146;-82
2022/08/03 10:36:40;;;;;;;6.80;4.03;;;29.40;72.30;;;;;;5057261;28;20099;-81
2022/08/03 10:39:06;;;;;;;7.60;4.20;;;29.30;71.10;;;;;;5056865;28;20044;-81
2022/08/03 10:41:37;;;;;;;10.20;3.80;;;29.20;71.10;;;;;;5057034;28;20051;-81
2022/08/03 10:44:09;;;;;;;6.25;3.75;;;29.60;70.00;;;;;;5055060;28;20255;-82
2022/08/03 10:46:38;;;;;;;7.15;3.63;;;29.70;69.60;;;;;;5056417;28;20024;-80
2022/08/03 10:49:04;;;;;;;6.40;3.60;;;29.70;69.50;;;;;;5056886;28;20471;-82
2022/08/03 10:51:31;;;;;;;5.82;3.60;;;29.70;69.50;;;;;;5057342;28;20354;-79
2022/08/03 10:53:58;;;;;;;6.43;3.53;;;29.70;69.60;;;;;;5055359;28;20475;-82
2022/08/03 10:59:19;;;;;;;6.93;3.55;;;29.90;66.70;;;;;;5057411;28;20040;-80
2022/08/03 11:01:51;;;;;;;6.35;3.40;;;30.30;67.00;;;;;;5056691;28;20111;-82
2022/08/03 11:04:22;;;;;;;8.38;3.40;;;30.30;66.80;;;;;;5056810;28;20024;-80
2022/08/03 11:07:14;;;;;;;5.53;3.03;;;30.10;66.50;;;;;;5057331;28;20361;-82
2022/08/03 11:09:51;;;;;;;6.32;3.40;;;29.90;65.20;;;;;;5059870;28;20107;-81
2022/08/03 11:12:28;;;;;;;7.25;3.72;;;29.70;65.20;;;;;;5059396;28;20291;-83
2022/08/03 11:14:56;;;;;;;6.70;3.08;;;29.70;65.80;;;;;;5059047;28;20598;-82
2022/08/03 11:17:22;;;;;;;7.25;3.53;;;30.00;65.90;;;;;;5060287;28;20135;-81
2022/08/03 11:19:52;;;;;;;6.22;3.25;;;30.60;64.20;;;;;;5060749;28;20067;-82
2022/08/03 11:22:20;;;;;;;7.10;3.63;;;31.00;64.10;;;;;;5058283;28;20213;-81
2022/08/03 11:24:49;;;;;;;5.93;3.03;;;31.40;63.30;;;;;;5059651;28;20017;-80
2022/08/03 11:27:22;;;;;;;6.32;3.53;;;31.60;62.00;;;;;;5060150;28;20039;-80
2022/08/03 11:30:05;;;;;;;5.13;3.10;;;31.60;60.70;;;;;;5060149;28;20017;-83
2022/08/03 11:32:37;;;;;;;5.15;3.20;;;31.60;60.20;;;;;;5058425;28;20059;-81
2022/08/03 11:35:23;;;;;;;6.33;3.03;;;31.50;59.80;;;;;;5058427;28;20461;-82
2022/08/03 11:38:00;;;;;;;7.07;3.08;;;31.10;60.20;;;;;;5058623;28;20025;-80
2022/08/03 11:40:47;;;;;;;9.32;3.83;;;30.90;59.80;;;;;;5059533;28;20082;-81
2022/08/03 11:43:22;;;;;;;7.15;3.42;;;30.30;60.20;;;;;;5058399;28;20106;-81
2022/08/03 11:46:01;;;;;;;7.00;3.10;;;30.20;60.60;;;;;;5059585;28;20033;-82
2022/08/03 11:48:42;;;;;;;7.90;3.67;;;30.20;59.70;;;;;;5058573;28;20058;-81
2022/08/03 11:51:25;;;;;;;7.65;3.22;;;30.00;61.00;;;;;;5060040;28;20025;-81
2022/08/03 11:53:56;;;;;;;7.90;3.67;;;30.40;61.80;;;;;;5060909;28;20055;-80
2022/08/03 11:56:22;;;;;;;6.35;3.35;;;30.70;59.90;;;;;;5062455;28;20040;-80
2022/08/03 11:58:52;;;;;;;8.95;3.08;;;31.00;58.50;;;;;;5061927;28;20505;-82
2022/08/03 12:01:19;;;;;;;6.50;2.83;;;31.00;59.60;;;;;;5061704;28;20017;-81
2022/08/03 12:03:46;;;;;;;7.45;3.00;;;30.80;57.00;;;;;;5060592;28;20111;-80
2022/08/03 12:06:14;;;;;;;4.30;2.78;;;30.70;57.30;;;;;;5060018;28;20041;-81
2022/08/03 12:08:41;;;;;;;4.97;2.58;;;30.70;57.20;;;;;;5059925;28;20017;-83
2022/08/03 12:11:10;;;;;;;4.70;2.58;;;30.70;56.90;;;;;;5060105;28;20017;-80
2022/08/03 12:13:37;;;;;;;5.53;2.78;;;30.60;58.20;;;;;;5059633;28;20075;-82
2022/08/03 12:16:03;;;;;;;5.60;2.72;;;30.80;59.40;;;;;;5058311;28;20027;-81
2022/08/03 12:18:29;;;;;;;6.75;3.05;;;31.30;59.00;;;;;;5059414;28;20066;-82
2022/08/03 12:21:05;;;;;;;6.95;3.33;;;31.30;59.10;;;;;;5057535;28;20226;-80
2022/08/03 12:23:31;;;;;;;5.70;2.88;;;30.00;58.10;;;;;;5059345;28;20351;-80
2022/08/03 12:26:05;;;;;;;9.40;3.20;;;31.10;58.60;;;;;;5058441;28;20126;-80
2022/08/03 12:28:31;;;;;;;5.72;2.88;;;28.20;55.30;;;;;;5059528;28;20112;-82
2022/08/03 12:31:05;;;;;;;4.75;2.50;;;30.70;57.00;;;;;;5057546;28;20082;-82
2022/08/03 12:33:32;;;;;;;6.13;2.70;;;30.60;56.70;;;;;;5059379;28;20020;-80
2022/08/03 12:36:04;;;;;;;5.45;2.70;;;30.60;56.40;;;;;;5059128;28;20486;-82
2022/08/03 12:38:32;;;;;;;4.90;2.63;;;30.50;56.70;;;;;;5058837;28;20024;-81
2022/08/03 12:41:12;;;;;;;4.28;2.15;;;30.60;56.60;;;;;;5058516;28;20037;-81
2022/08/03 12:43:50;;;;;;;5.07;2.75;;;30.60;56.00;;;;;;5058779;28;20080;-81
2022/08/03 12:46:18;;;;;;;5.78;2.67;;;30.50;56.20;;;;;;5058674;28;20324;-82
2022/08/03 12:49:03;;;;;;;5.90;3.00;;;30.90;55.90;;;;;;5056856;28;20435;-81
2022/08/03 12:51:30;;;;;;;6.57;3.22;;;32.10;55.90;;;;;;5057386;28;20028;-82
2022/08/03 12:54:08;;;;;;;;;;;;;;;;;;;;;
2022/08/03 12:56:34;;;;;;;9.50;3.95;;;34.70;53.40;;;;;;5058344;28;20227;-81
2022/08/03 12:59:20;;;;;;;8.07;3.30;;;35.60;52.00;;;;;;5056728;28;20235;-82
2022/08/03 13:05:13;;;;;;;5.57;2.60;;;35.90;47.70;;;;;;5059867;28;20505;-80
2022/08/03 13:07:46;;;;;;;5.47;2.95;;;35.50;47.00;;;;;;5058991;28;20020;-82
2022/08/03 13:10:25;;;;;;;8.13;3.10;;;34.70;48.10;;;;;;5057416;28;20450;-81